sensor_id;sensor_type;location;lat;lon;timestamp;P1;durP1;ratioP1;P2;durP2;ratioP2
32080;SDS011;18593;51.426;7.030;2022-11-20T00:00:37;32.97;;;18.85;;
32080;SDS011;18593;51.426;7.030;2022-11-20T00:03:04;35.72;;;19.85;;
32080;SDS011;18593;51.426;7.030;2022-11-20T00:05:31;36.08;;;19.02;;
32080;SDS011;18593;51.426;7.030;2022-11-20T00:07:59;39.58;;;21.08;;
32080;SDS011;18593;51.426;7.030;2022-11-20T00:10:27;36.33;;;20.85;;
32080;SDS011;18593;51.426;7.030;2022-11-20T00:12:54;36.38;;;20.67;;
32080;SDS011;18593;51.426;7.030;2022-11-20T00:15:21;35.55;;;20.77;;
32080;SDS011;18593;51.426;7.030;2022-11-20T00:17:48;36.92;;;20.40;;
32080;SDS011;18593;51.426;7.030;2022-11-20T00:20:14;35.83;;;20.23;;
32080;SDS011;18593;51.426;7.030;2022-11-20T00:22:41;34.78;;;19.58;;
32080;SDS011;18593;51.426;7.030;2022-11-20T00:25:08;33.38;;;20.13;;
32080;SDS011;18593;51.426;7.030;2022-11-20T00:27:37;39.45;;;21.48;;
32080;SDS011;18593;51.426;7.030;2022-11-20T00:30:05;36.67;;;20.83;;
32080;SDS011;18593;51.426;7.030;2022-11-20T00:32:32;35.08;;;19.65;;
32080;SDS011;18593;51.426;7.030;2022-11-20T00:34:59;37.70;;;20.42;;
32080;SDS011;18593;51.426;7.030;2022-11-20T00:37:26;33.95;;;19.83;;
32080;SDS011;18593;51.426;7.030;2022-11-20T00:39:53;34.55;;;19.83;;
32080;SDS011;18593;51.426;7.030;2022-11-20T00:42:20;35.05;;;19.35;;
32080;SDS011;18593;51.426;7.030;2022-11-20T00:44:48;37.33;;;19.67;;
32080;SDS011;18593;51.426;7.030;2022-11-20T00:47:17;34.45;;;19.55;;
32080;SDS011;18593;51.426;7.030;2022-11-20T00:49:44;33.85;;;19.38;;
32080;SDS011;18593;51.426;7.030;2022-11-20T00:52:11;35.72;;;20.42;;
32080;SDS011;18593;51.426;7.030;2022-11-20T00:54:37;38.05;;;21.27;;
32080;SDS011;18593;51.426;7.030;2022-11-20T00:57:04;36.38;;;20.88;;
32080;SDS011;18593;51.426;7.030;2022-11-20T00:59:31;35.85;;;20.75;;
32080;SDS011;18593;51.426;7.030;2022-11-20T01:01:59;40.40;;;22.05;;
32080;SDS011;18593;51.426;7.030;2022-11-20T01:04:26;40.28;;;22.17;;
32080;SDS011;18593;51.426;7.030;2022-11-20T01:06:53;35.45;;;20.77;;
32080;SDS011;18593;51.426;7.030;2022-11-20T01:09:20;35.80;;;22.00;;
32080;SDS011;18593;51.426;7.030;2022-11-20T01:11:47;38.30;;;22.92;;
32080;SDS011;18593;51.426;7.030;2022-11-20T01:14:15;34.92;;;21.25;;
32080;SDS011;18593;51.426;7.030;2022-11-20T01:16:44;36.40;;;20.20;;
32080;SDS011;18593;51.426;7.030;2022-11-20T01:19:15;40.47;;;22.23;;
32080;SDS011;18593;51.426;7.030;2022-11-20T01:21:44;36.67;;;21.13;;
32080;SDS011;18593;51.426;7.030;2022-11-20T01:24:12;36.78;;;20.63;;
32080;SDS011;18593;51.426;7.030;2022-11-20T01:26:42;36.80;;;20.80;;
32080;SDS011;18593;51.426;7.030;2022-11-20T01:29:12;38.97;;;21.48;;
32080;SDS011;18593;51.426;7.030;2022-11-20T01:31:40;37.33;;;20.70;;
32080;SDS011;18593;51.426;7.030;2022-11-20T01:34:08;37.53;;;21.08;;
32080;SDS011;18593;51.426;7.030;2022-11-20T01:36:38;37.67;;;21.17;;
32080;SDS011;18593;51.426;7.030;2022-11-20T01:39:06;37.38;;;19.88;;
32080;SDS011;18593;51.426;7.030;2022-11-20T01:41:35;34.92;;;19.98;;
32080;SDS011;18593;51.426;7.030;2022-11-20T01:44:20;36.22;;;19.38;;
32080;SDS011;18593;51.426;7.030;2022-11-20T01:46:51;33.90;;;20.38;;
32080;SDS011;18593;51.426;7.030;2022-11-20T01:49:22;34.38;;;20.02;;
32080;SDS011;18593;51.426;7.030;2022-11-20T01:51:53;33.42;;;19.88;;
32080;SDS011;18593;51.426;7.030;2022-11-20T01:54:23;36.95;;;20.85;;
32080;SDS011;18593;51.426;7.030;2022-11-20T01:56:52;38.78;;;22.08;;
32080;SDS011;18593;51.426;7.030;2022-11-20T01:59:21;33.90;;;20.17;;
32080;SDS011;18593;51.426;7.030;2022-11-20T02:01:49;35.65;;;20.92;;
32080;SDS011;18593;51.426;7.030;2022-11-20T02:04:16;36.15;;;20.85;;
32080;SDS011;18593;51.426;7.030;2022-11-20T02:06:43;36.25;;;20.65;;
32080;SDS011;18593;51.426;7.030;2022-11-20T02:09:15;37.15;;;21.33;;
32080;SDS011;18593;51.426;7.030;2022-11-20T02:11:42;38.38;;;21.75;;
32080;SDS011;18593;51.426;7.030;2022-11-20T02:14:09;38.97;;;21.25;;
32080;SDS011;18593;51.426;7.030;2022-11-20T02:16:37;37.60;;;20.17;;
32080;SDS011;18593;51.426;7.030;2022-11-20T02:19:06;40.53;;;21.77;;
32080;SDS011;18593;51.426;7.030;2022-11-20T02:21:37;35.93;;;21.40;;
32080;SDS011;18593;51.426;7.030;2022-11-20T02:24:09;35.30;;;21.02;;
32080;SDS011;18593;51.426;7.030;2022-11-20T02:26:41;41.20;;;22.17;;
32080;SDS011;18593;51.426;7.030;2022-11-20T02:29:11;39.05;;;21.70;;
32080;SDS011;18593;51.426;7.030;2022-11-20T02:31:38;37.08;;;21.25;;
32080;SDS011;18593;51.426;7.030;2022-11-20T02:34:07;38.38;;;22.27;;
32080;SDS011;18593;51.426;7.030;2022-11-20T02:36:34;36.88;;;20.52;;
32080;SDS011;18593;51.426;7.030;2022-11-20T02:42:36;37.20;;;20.85;;
32080;SDS011;18593;51.426;7.030;2022-11-20T02:45:04;34.72;;;19.98;;
32080;SDS011;18593;51.426;7.030;2022-11-20T02:47:31;33.03;;;19.88;;
32080;SDS011;18593;51.426;7.030;2022-11-20T02:49:58;43.50;;;22.08;;
32080;SDS011;18593;51.426;7.030;2022-11-20T02:52:25;33.63;;;20.00;;
32080;SDS011;18593;51.426;7.030;2022-11-20T02:54:52;36.63;;;20.38;;
32080;SDS011;18593;51.426;7.030;2022-11-20T02:57:19;33.75;;;20.10;;
32080;SDS011;18593;51.426;7.030;2022-11-20T02:59:47;35.70;;;21.48;;
32080;SDS011;18593;51.426;7.030;2022-11-20T03:02:14;35.95;;;20.88;;
32080;SDS011;18593;51.426;7.030;2022-11-20T03:04:41;35.30;;;21.58;;
32080;SDS011;18593;51.426;7.030;2022-11-20T03:07:08;38.53;;;20.85;;
32080;SDS011;18593;51.426;7.030;2022-11-20T03:09:35;36.20;;;21.08;;
32080;SDS011;18593;51.426;7.030;2022-11-20T03:12:03;35.75;;;20.90;;
32080;SDS011;18593;51.426;7.030;2022-11-20T03:14:30;37.80;;;21.52;;
32080;SDS011;18593;51.426;7.030;2022-11-20T03:16:58;35.85;;;20.75;;
32080;SDS011;18593;51.426;7.030;2022-11-20T03:19:25;37.10;;;20.70;;
32080;SDS011;18593;51.426;7.030;2022-11-20T03:21:52;35.20;;;21.27;;
32080;SDS011;18593;51.426;7.030;2022-11-20T03:24:19;37.50;;;21.33;;
32080;SDS011;18593;51.426;7.030;2022-11-20T03:26:46;35.47;;;20.98;;
32080;SDS011;18593;51.426;7.030;2022-11-20T03:29:13;36.63;;;21.17;;
32080;SDS011;18593;51.426;7.030;2022-11-20T03:31:40;34.05;;;19.83;;
32080;SDS011;18593;51.426;7.030;2022-11-20T03:34:09;38.03;;;21.58;;
32080;SDS011;18593;51.426;7.030;2022-11-20T03:36:37;33.30;;;20.58;;
32080;SDS011;18593;51.426;7.030;2022-11-20T03:39:04;34.00;;;19.90;;
32080;SDS011;18593;51.426;7.030;2022-11-20T03:41:35;35.03;;;19.73;;
32080;SDS011;18593;51.426;7.030;2022-11-20T03:44:03;32.95;;;20.20;;
32080;SDS011;18593;51.426;7.030;2022-11-20T03:46:32;36.92;;;19.45;;
32080;SDS011;18593;51.426;7.030;2022-11-20T03:48:59;34.28;;;20.88;;
32080;SDS011;18593;51.426;7.030;2022-11-20T03:51:28;33.97;;;20.10;;
32080;SDS011;18593;51.426;7.030;2022-11-20T03:53:57;33.65;;;19.50;;
32080;SDS011;18593;51.426;7.030;2022-11-20T03:56:25;33.17;;;18.95;;
32080;SDS011;18593;51.426;7.030;2022-11-20T03:58:53;33.35;;;19.55;;
32080;SDS011;18593;51.426;7.030;2022-11-20T04:01:21;31.67;;;18.77;;
32080;SDS011;18593;51.426;7.030;2022-11-20T04:03:51;32.40;;;18.95;;
32080;SDS011;18593;51.426;7.030;2022-11-20T04:06:19;32.63;;;19.45;;
32080;SDS011;18593;51.426;7.030;2022-11-20T04:08:49;34.47;;;18.58;;
32080;SDS011;18593;51.426;7.030;2022-11-20T04:11:16;31.60;;;19.00;;
32080;SDS011;18593;51.426;7.030;2022-11-20T04:13:45;34.20;;;18.92;;
32080;SDS011;18593;51.426;7.030;2022-11-20T04:16:13;35.30;;;18.95;;
32080;SDS011;18593;51.426;7.030;2022-11-20T04:18:42;30.55;;;17.77;;
32080;SDS011;18593;51.426;7.030;2022-11-20T04:21:10;34.35;;;19.35;;
32080;SDS011;18593;51.426;7.030;2022-11-20T04:23:37;34.47;;;19.15;;
32080;SDS011;18593;51.426;7.030;2022-11-20T04:26:06;34.70;;;19.13;;
32080;SDS011;18593;51.426;7.030;2022-11-20T04:28:34;31.75;;;18.63;;
32080;SDS011;18593;51.426;7.030;2022-11-20T04:31:01;34.45;;;18.92;;
32080;SDS011;18593;51.426;7.030;2022-11-20T04:33:30;31.10;;;18.40;;
32080;SDS011;18593;51.426;7.030;2022-11-20T04:35:59;29.77;;;17.77;;
32080;SDS011;18593;51.426;7.030;2022-11-20T04:38:27;31.67;;;17.73;;
32080;SDS011;18593;51.426;7.030;2022-11-20T04:40:55;30.90;;;18.77;;
32080;SDS011;18593;51.426;7.030;2022-11-20T04:43:25;30.67;;;17.52;;
32080;SDS011;18593;51.426;7.030;2022-11-20T04:45:52;30.83;;;18.42;;
32080;SDS011;18593;51.426;7.030;2022-11-20T04:48:19;27.27;;;16.75;;
32080;SDS011;18593;51.426;7.030;2022-11-20T04:50:46;29.52;;;17.23;;
32080;SDS011;18593;51.426;7.030;2022-11-20T04:53:13;28.42;;;17.15;;
32080;SDS011;18593;51.426;7.030;2022-11-20T04:55:40;30.33;;;17.27;;
32080;SDS011;18593;51.426;7.030;2022-11-20T04:58:07;27.35;;;15.98;;
32080;SDS011;18593;51.426;7.030;2022-11-20T05:00:36;28.52;;;16.88;;
32080;SDS011;18593;51.426;7.030;2022-11-20T05:03:03;28.35;;;16.45;;
32080;SDS011;18593;51.426;7.030;2022-11-20T05:05:30;29.33;;;17.50;;
32080;SDS011;18593;51.426;7.030;2022-11-20T05:07:57;27.75;;;15.93;;
32080;SDS011;18593;51.426;7.030;2022-11-20T05:10:24;29.02;;;16.77;;
32080;SDS011;18593;51.426;7.030;2022-11-20T05:12:51;29.38;;;17.25;;
32080;SDS011;18593;51.426;7.030;2022-11-20T05:15:18;30.25;;;16.17;;
32080;SDS011;18593;51.426;7.030;2022-11-20T05:17:48;26.95;;;15.13;;
32080;SDS011;18593;51.426;7.030;2022-11-20T05:20:15;25.77;;;16.23;;
32080;SDS011;18593;51.426;7.030;2022-11-20T05:22:42;27.55;;;16.42;;
32080;SDS011;18593;51.426;7.030;2022-11-20T05:25:09;26.65;;;16.02;;
32080;SDS011;18593;51.426;7.030;2022-11-20T05:27:36;27.55;;;15.93;;
32080;SDS011;18593;51.426;7.030;2022-11-20T05:30:04;25.05;;;15.38;;
32080;SDS011;18593;51.426;7.030;2022-11-20T05:32:31;29.38;;;15.65;;
32080;SDS011;18593;51.426;7.030;2022-11-20T05:34:59;26.58;;;15.68;;
32080;SDS011;18593;51.426;7.030;2022-11-20T05:37:26;25.98;;;14.95;;
32080;SDS011;18593;51.426;7.030;2022-11-20T05:39:53;26.73;;;14.85;;
32080;SDS011;18593;51.426;7.030;2022-11-20T05:42:20;26.98;;;14.75;;
32080;SDS011;18593;51.426;7.030;2022-11-20T05:44:56;28.60;;;16.02;;
32080;SDS011;18593;51.426;7.030;2022-11-20T05:47:23;28.77;;;16.38;;
32080;SDS011;18593;51.426;7.030;2022-11-20T05:49:50;28.45;;;16.10;;
32080;SDS011;18593;51.426;7.030;2022-11-20T05:52:18;29.73;;;17.42;;
32080;SDS011;18593;51.426;7.030;2022-11-20T05:54:45;28.73;;;16.90;;
32080;SDS011;18593;51.426;7.030;2022-11-20T05:57:12;29.02;;;17.42;;
32080;SDS011;18593;51.426;7.030;2022-11-20T05:59:39;28.85;;;17.35;;
32080;SDS011;18593;51.426;7.030;2022-11-20T06:02:06;30.90;;;18.27;;
32080;SDS011;18593;51.426;7.030;2022-11-20T06:04:33;30.65;;;18.55;;
32080;SDS011;18593;51.426;7.030;2022-11-20T06:07:00;33.97;;;19.70;;
32080;SDS011;18593;51.426;7.030;2022-11-20T06:09:28;34.55;;;18.98;;
32080;SDS011;18593;51.426;7.030;2022-11-20T06:11:55;30.67;;;17.95;;
32080;SDS011;18593;51.426;7.030;2022-11-20T06:14:22;29.35;;;18.02;;
32080;SDS011;18593;51.426;7.030;2022-11-20T06:16:49;32.80;;;18.45;;
32080;SDS011;18593;51.426;7.030;2022-11-20T06:19:17;32.85;;;19.33;;
32080;SDS011;18593;51.426;7.030;2022-11-20T06:21:44;33.70;;;20.58;;
32080;SDS011;18593;51.426;7.030;2022-11-20T06:24:11;37.10;;;20.98;;
32080;SDS011;18593;51.426;7.030;2022-11-20T06:26:39;33.92;;;19.85;;
32080;SDS011;18593;51.426;7.030;2022-11-20T06:29:06;38.22;;;21.27;;
32080;SDS011;18593;51.426;7.030;2022-11-20T06:31:33;36.78;;;20.98;;
32080;SDS011;18593;51.426;7.030;2022-11-20T06:34:02;45.00;;;26.10;;
32080;SDS011;18593;51.426;7.030;2022-11-20T06:36:29;43.15;;;25.52;;
32080;SDS011;18593;51.426;7.030;2022-11-20T06:38:56;45.60;;;26.40;;
32080;SDS011;18593;51.426;7.030;2022-11-20T06:41:23;44.83;;;26.23;;
32080;SDS011;18593;51.426;7.030;2022-11-20T06:43:51;37.10;;;22.15;;
32080;SDS011;18593;51.426;7.030;2022-11-20T06:46:19;38.58;;;23.10;;
32080;SDS011;18593;51.426;7.030;2022-11-20T06:48:46;36.25;;;21.92;;
32080;SDS011;18593;51.426;7.030;2022-11-20T06:51:13;39.05;;;22.50;;
32080;SDS011;18593;51.426;7.030;2022-11-20T06:53:40;34.70;;;20.92;;
32080;SDS011;18593;51.426;7.030;2022-11-20T06:56:07;35.25;;;21.20;;
32080;SDS011;18593;51.426;7.030;2022-11-20T06:58:35;34.08;;;20.27;;
32080;SDS011;18593;51.426;7.030;2022-11-20T07:01:04;31.75;;;19.15;;
32080;SDS011;18593;51.426;7.030;2022-11-20T07:03:32;34.47;;;20.70;;
32080;SDS011;18593;51.426;7.030;2022-11-20T07:05:59;35.60;;;20.08;;
32080;SDS011;18593;51.426;7.030;2022-11-20T07:08:27;34.50;;;19.90;;
32080;SDS011;18593;51.426;7.030;2022-11-20T07:10:57;31.52;;;18.40;;
32080;SDS011;18593;51.426;7.030;2022-11-20T07:13:24;31.13;;;17.92;;
32080;SDS011;18593;51.426;7.030;2022-11-20T07:15:52;29.85;;;18.15;;
32080;SDS011;18593;51.426;7.030;2022-11-20T07:18:20;36.58;;;18.85;;
32080;SDS011;18593;51.426;7.030;2022-11-20T07:20:47;34.20;;;18.35;;
32080;SDS011;18593;51.426;7.030;2022-11-20T07:23:14;31.98;;;18.00;;
32080;SDS011;18593;51.426;7.030;2022-11-20T07:25:41;32.33;;;18.20;;
32080;SDS011;18593;51.426;7.030;2022-11-20T07:28:08;31.60;;;17.38;;
32080;SDS011;18593;51.426;7.030;2022-11-20T07:30:35;34.40;;;17.55;;
32080;SDS011;18593;51.426;7.030;2022-11-20T07:33:02;30.77;;;17.58;;
32080;SDS011;18593;51.426;7.030;2022-11-20T07:35:31;29.38;;;18.10;;
32080;SDS011;18593;51.426;7.030;2022-11-20T07:37:58;29.77;;;17.60;;
32080;SDS011;18593;51.426;7.030;2022-11-20T07:40:25;31.50;;;18.05;;
32080;SDS011;18593;51.426;7.030;2022-11-20T07:42:52;32.10;;;18.67;;
32080;SDS011;18593;51.426;7.030;2022-11-20T07:45:20;31.35;;;18.38;;
32080;SDS011;18593;51.426;7.030;2022-11-20T07:47:48;29.67;;;17.85;;
32080;SDS011;18593;51.426;7.030;2022-11-20T07:50:15;31.85;;;18.80;;
32080;SDS011;18593;51.426;7.030;2022-11-20T07:52:44;31.50;;;19.00;;
32080;SDS011;18593;51.426;7.030;2022-11-20T07:55:11;31.75;;;18.15;;
32080;SDS011;18593;51.426;7.030;2022-11-20T07:57:38;30.63;;;18.00;;
32080;SDS011;18593;51.426;7.030;2022-11-20T08:00:06;35.83;;;20.63;;
32080;SDS011;18593;51.426;7.030;2022-11-20T08:02:37;36.10;;;20.83;;
32080;SDS011;18593;51.426;7.030;2022-11-20T08:05:05;38.58;;;21.23;;
32080;SDS011;18593;51.426;7.030;2022-11-20T08:07:35;43.88;;;23.00;;
32080;SDS011;18593;51.426;7.030;2022-11-20T08:10:04;35.58;;;21.50;;
32080;SDS011;18593;51.426;7.030;2022-11-20T08:12:32;41.15;;;23.60;;
32080;SDS011;18593;51.426;7.030;2022-11-20T08:15:16;36.13;;;21.92;;
32080;SDS011;18593;51.426;7.030;2022-11-20T08:17:43;37.15;;;21.90;;
32080;SDS011;18593;51.426;7.030;2022-11-20T08:20:10;39.72;;;22.55;;
32080;SDS011;18593;51.426;7.030;2022-11-20T08:22:40;39.42;;;23.23;;
32080;SDS011;18593;51.426;7.030;2022-11-20T08:25:08;38.00;;;23.10;;
32080;SDS011;18593;51.426;7.030;2022-11-20T08:27:35;40.70;;;23.85;;
32080;SDS011;18593;51.426;7.030;2022-11-20T08:30:02;47.88;;;25.13;;
32080;SDS011;18593;51.426;7.030;2022-11-20T08:32:30;40.53;;;23.23;;
32080;SDS011;18593;51.426;7.030;2022-11-20T08:34:57;41.17;;;23.85;;
32080;SDS011;18593;51.426;7.030;2022-11-20T08:37:23;164.20;;;29.48;;
32080;SDS011;18593;51.426;7.030;2022-11-20T08:39:50;44.47;;;23.63;;
32080;SDS011;18593;51.426;7.030;2022-11-20T08:42:20;39.10;;;22.58;;
32080;SDS011;18593;51.426;7.030;2022-11-20T08:44:46;37.20;;;22.10;;
32080;SDS011;18593;51.426;7.030;2022-11-20T08:47:14;34.40;;;21.65;;
32080;SDS011;18593;51.426;7.030;2022-11-20T08:49:40;36.60;;;21.13;;
32080;SDS011;18593;51.426;7.030;2022-11-20T08:52:07;37.60;;;22.23;;
32080;SDS011;18593;51.426;7.030;2022-11-20T08:54:34;35.65;;;21.80;;
32080;SDS011;18593;51.426;7.030;2022-11-20T08:57:01;35.45;;;21.55;;
32080;SDS011;18593;51.426;7.030;2022-11-20T08:59:30;36.45;;;22.35;;
32080;SDS011;18593;51.426;7.030;2022-11-20T09:01:57;35.20;;;21.05;;
32080;SDS011;18593;51.426;7.030;2022-11-20T09:04:24;35.67;;;22.30;;
32080;SDS011;18593;51.426;7.030;2022-11-20T09:06:51;46.15;;;24.08;;
32080;SDS011;18593;51.426;7.030;2022-11-20T09:09:18;37.42;;;22.35;;
32080;SDS011;18593;51.426;7.030;2022-11-20T09:11:45;35.10;;;21.92;;
32080;SDS011;18593;51.426;7.030;2022-11-20T09:14:12;78.15;;;37.33;;
32080;SDS011;18593;51.426;7.030;2022-11-20T09:16:40;69.93;;;35.50;;
32080;SDS011;18593;51.426;7.030;2022-11-20T09:19:07;65.00;;;32.80;;
32080;SDS011;18593;51.426;7.030;2022-11-20T09:21:34;62.42;;;33.45;;
32080;SDS011;18593;51.426;7.030;2022-11-20T09:24:01;59.70;;;31.85;;
32080;SDS011;18593;51.426;7.030;2022-11-20T09:26:28;57.60;;;31.58;;
32080;SDS011;18593;51.426;7.030;2022-11-20T09:28:55;62.80;;;33.35;;
32080;SDS011;18593;51.426;7.030;2022-11-20T09:31:23;74.10;;;37.72;;
32080;SDS011;18593;51.426;7.030;2022-11-20T09:33:52;72.22;;;37.58;;
32080;SDS011;18593;51.426;7.030;2022-11-20T09:36:19;60.97;;;33.38;;
32080;SDS011;18593;51.426;7.030;2022-11-20T09:38:46;54.97;;;30.83;;
32080;SDS011;18593;51.426;7.030;2022-11-20T09:41:19;39.20;;;22.73;;
32080;SDS011;18593;51.426;7.030;2022-11-20T09:44:01;33.40;;;17.83;;
32080;SDS011;18593;51.426;7.030;2022-11-20T09:46:34;32.47;;;18.20;;
32080;SDS011;18593;51.426;7.030;2022-11-20T09:49:12;31.88;;;17.05;;
32080;SDS011;18593;51.426;7.030;2022-11-20T09:51:49;29.92;;;17.38;;
32080;SDS011;18593;51.426;7.030;2022-11-20T09:54:25;25.65;;;15.55;;
32080;SDS011;18593;51.426;7.030;2022-11-20T09:56:58;28.27;;;15.88;;
32080;SDS011;18593;51.426;7.030;2022-11-20T09:59:29;30.05;;;16.15;;
32080;SDS011;18593;51.426;7.030;2022-11-20T10:02:00;26.35;;;16.30;;
32080;SDS011;18593;51.426;7.030;2022-11-20T10:04:30;27.63;;;14.90;;
32080;SDS011;18593;51.426;7.030;2022-11-20T10:07:00;30.15;;;15.20;;
32080;SDS011;18593;51.426;7.030;2022-11-20T10:09:30;24.73;;;15.35;;
32080;SDS011;18593;51.426;7.030;2022-11-20T10:12:03;30.48;;;17.13;;
32080;SDS011;18593;51.426;7.030;2022-11-20T10:14:38;29.80;;;16.77;;
32080;SDS011;18593;51.426;7.030;2022-11-20T10:17:16;28.33;;;15.70;;
32080;SDS011;18593;51.426;7.030;2022-11-20T10:19:56;25.17;;;14.32;;
32080;SDS011;18593;51.426;7.030;2022-11-20T10:22:40;26.08;;;14.85;;
32080;SDS011;18593;51.426;7.030;2022-11-20T10:25:13;26.02;;;14.27;;
32080;SDS011;18593;51.426;7.030;2022-11-20T10:27:56;25.60;;;15.38;;
32080;SDS011;18593;51.426;7.030;2022-11-20T10:30:40;27.88;;;15.30;;
32080;SDS011;18593;51.426;7.030;2022-11-20T10:33:10;27.08;;;14.70;;
32080;SDS011;18593;51.426;7.030;2022-11-20T10:35:42;23.42;;;13.55;;
32080;SDS011;18593;51.426;7.030;2022-11-20T10:38:12;23.00;;;12.77;;
32080;SDS011;18593;51.426;7.030;2022-11-20T10:40:44;23.35;;;13.32;;
32080;SDS011;18593;51.426;7.030;2022-11-20T10:43:13;24.38;;;14.23;;
32080;SDS011;18593;51.426;7.030;2022-11-20T10:45:47;24.25;;;13.52;;
32080;SDS011;18593;51.426;7.030;2022-11-20T10:48:19;24.38;;;14.00;;
32080;SDS011;18593;51.426;7.030;2022-11-20T10:53:39;24.83;;;14.25;;
32080;SDS011;18593;51.426;7.030;2022-11-20T10:56:11;23.77;;;13.63;;
32080;SDS011;18593;51.426;7.030;2022-11-20T10:58:45;25.88;;;14.52;;
32080;SDS011;18593;51.426;7.030;2022-11-20T11:01:20;25.67;;;13.98;;
32080;SDS011;18593;51.426;7.030;2022-11-20T11:03:48;22.98;;;13.50;;
32080;SDS011;18593;51.426;7.030;2022-11-20T11:06:19;23.02;;;13.45;;
32080;SDS011;18593;51.426;7.030;2022-11-20T11:08:50;25.58;;;13.00;;
32080;SDS011;18593;51.426;7.030;2022-11-20T11:11:20;23.80;;;13.05;;
32080;SDS011;18593;51.426;7.030;2022-11-20T11:13:49;22.83;;;12.75;;
32080;SDS011;18593;51.426;7.030;2022-11-20T11:16:19;24.42;;;13.57;;
32080;SDS011;18593;51.426;7.030;2022-11-20T11:21:21;23.27;;;13.45;;
32080;SDS011;18593;51.426;7.030;2022-11-20T11:23:56;23.85;;;13.20;;
32080;SDS011;18593;51.426;7.030;2022-11-20T11:26:25;22.55;;;12.77;;
32080;SDS011;18593;51.426;7.030;2022-11-20T11:28:55;23.23;;;13.60;;
32080;SDS011;18593;51.426;7.030;2022-11-20T11:31:23;26.15;;;14.88;;
32080;SDS011;18593;51.426;7.030;2022-11-20T11:33:51;24.23;;;14.02;;
32080;SDS011;18593;51.426;7.030;2022-11-20T11:36:19;25.65;;;14.30;;
32080;SDS011;18593;51.426;7.030;2022-11-20T11:38:51;25.33;;;13.80;;
32080;SDS011;18593;51.426;7.030;2022-11-20T11:41:20;24.17;;;13.35;;
32080;SDS011;18593;51.426;7.030;2022-11-20T11:46:36;26.75;;;13.40;;
32080;SDS011;18593;51.426;7.030;2022-11-20T11:49:13;27.27;;;15.30;;
32080;SDS011;18593;51.426;7.030;2022-11-20T11:51:47;25.52;;;14.00;;
32080;SDS011;18593;51.426;7.030;2022-11-20T11:54:25;26.58;;;14.68;;
32080;SDS011;18593;51.426;7.030;2022-11-20T11:56:57;23.83;;;13.80;;
32080;SDS011;18593;51.426;7.030;2022-11-20T11:59:27;25.17;;;14.30;;
32080;SDS011;18593;51.426;7.030;2022-11-20T12:01:59;27.23;;;14.50;;
32080;SDS011;18593;51.426;7.030;2022-11-20T12:04:37;26.33;;;14.27;;
32080;SDS011;18593;51.426;7.030;2022-11-20T12:07:10;27.00;;;14.38;;
32080;SDS011;18593;51.426;7.030;2022-11-20T12:09:41;26.60;;;14.30;;
32080;SDS011;18593;51.426;7.030;2022-11-20T12:12:10;28.20;;;14.88;;
32080;SDS011;18593;51.426;7.030;2022-11-20T12:14:42;29.75;;;15.13;;
32080;SDS011;18593;51.426;7.030;2022-11-20T12:17:12;26.83;;;15.13;;
32080;SDS011;18593;51.426;7.030;2022-11-20T12:19:40;28.27;;;14.73;;
32080;SDS011;18593;51.426;7.030;2022-11-20T12:22:10;27.88;;;15.70;;
32080;SDS011;18593;51.426;7.030;2022-11-20T12:24:49;29.08;;;14.95;;
32080;SDS011;18593;51.426;7.030;2022-11-20T12:30:08;26.90;;;14.50;;
32080;SDS011;18593;51.426;7.030;2022-11-20T12:32:44;26.88;;;15.18;;
32080;SDS011;18593;51.426;7.030;2022-11-20T12:35:28;26.95;;;14.75;;
32080;SDS011;18593;51.426;7.030;2022-11-20T12:38:04;27.35;;;15.10;;
32080;SDS011;18593;51.426;7.030;2022-11-20T12:40:41;26.98;;;14.55;;
32080;SDS011;18593;51.426;7.030;2022-11-20T12:46:04;29.00;;;15.43;;
32080;SDS011;18593;51.426;7.030;2022-11-20T12:48:47;25.20;;;13.98;;
32080;SDS011;18593;51.426;7.030;2022-11-20T12:51:25;26.58;;;15.55;;
32080;SDS011;18593;51.426;7.030;2022-11-20T12:54:04;29.38;;;15.73;;
32080;SDS011;18593;51.426;7.030;2022-11-20T12:56:49;26.63;;;14.88;;
32080;SDS011;18593;51.426;7.030;2022-11-20T12:59:29;29.70;;;15.18;;
32080;SDS011;18593;51.426;7.030;2022-11-20T13:02:09;26.20;;;15.27;;
32080;SDS011;18593;51.426;7.030;2022-11-20T13:04:48;32.75;;;15.73;;
32080;SDS011;18593;51.426;7.030;2022-11-20T13:07:22;31.83;;;15.65;;
32080;SDS011;18593;51.426;7.030;2022-11-20T13:09:52;25.05;;;14.75;;
32080;SDS011;18593;51.426;7.030;2022-11-20T13:12:22;26.58;;;14.60;;
32080;SDS011;18593;51.426;7.030;2022-11-20T13:14:55;29.30;;;15.70;;
32080;SDS011;18593;51.426;7.030;2022-11-20T13:17:28;28.92;;;15.52;;
32080;SDS011;18593;51.426;7.030;2022-11-20T13:19:59;28.80;;;15.73;;
32080;SDS011;18593;51.426;7.030;2022-11-20T13:22:27;29.00;;;15.50;;
32080;SDS011;18593;51.426;7.030;2022-11-20T13:24:56;27.95;;;15.50;;
32080;SDS011;18593;51.426;7.030;2022-11-20T13:27:23;29.15;;;16.13;;
32080;SDS011;18593;51.426;7.030;2022-11-20T13:30:00;27.17;;;16.30;;
32080;SDS011;18593;51.426;7.030;2022-11-20T13:32:47;30.35;;;16.23;;
32080;SDS011;18593;51.426;7.030;2022-11-20T13:35:23;30.40;;;17.00;;
32080;SDS011;18593;51.426;7.030;2022-11-20T13:37:59;32.72;;;16.20;;
32080;SDS011;18593;51.426;7.030;2022-11-20T13:40:30;29.70;;;16.27;;
32080;SDS011;18593;51.426;7.030;2022-11-20T13:43:02;30.45;;;17.45;;
32080;SDS011;18593;51.426;7.030;2022-11-20T13:45:34;31.95;;;17.10;;
32080;SDS011;18593;51.426;7.030;2022-11-20T13:48:15;33.03;;;18.33;;
32080;SDS011;18593;51.426;7.030;2022-11-20T13:50:56;33.53;;;18.75;;
32080;SDS011;18593;51.426;7.030;2022-11-20T13:53:48;33.30;;;18.65;;
32080;SDS011;18593;51.426;7.030;2022-11-20T13:56:31;34.05;;;18.90;;
32080;SDS011;18593;51.426;7.030;2022-11-20T13:59:05;36.65;;;19.17;;
32080;SDS011;18593;51.426;7.030;2022-11-20T14:01:35;33.22;;;18.30;;
32080;SDS011;18593;51.426;7.030;2022-11-20T14:04:06;36.28;;;19.73;;
32080;SDS011;18593;51.426;7.030;2022-11-20T14:06:38;36.90;;;19.27;;
32080;SDS011;18593;51.426;7.030;2022-11-20T14:09:09;33.47;;;18.60;;
32080;SDS011;18593;51.426;7.030;2022-11-20T14:11:45;35.45;;;19.33;;
32080;SDS011;18593;51.426;7.030;2022-11-20T14:14:13;34.03;;;19.35;;
32080;SDS011;18593;51.426;7.030;2022-11-20T14:16:42;35.03;;;20.42;;
32080;SDS011;18593;51.426;7.030;2022-11-20T14:19:26;39.13;;;20.27;;
32080;SDS011;18593;51.426;7.030;2022-11-20T14:22:07;36.05;;;19.90;;
32080;SDS011;18593;51.426;7.030;2022-11-20T14:24:43;39.10;;;20.30;;
32080;SDS011;18593;51.426;7.030;2022-11-20T14:27:13;39.63;;;20.90;;
32080;SDS011;18593;51.426;7.030;2022-11-20T14:29:42;39.97;;;21.45;;
32080;SDS011;18593;51.426;7.030;2022-11-20T14:32:10;40.50;;;22.45;;
32080;SDS011;18593;51.426;7.030;2022-11-20T14:34:38;43.88;;;22.85;;
32080;SDS011;18593;51.426;7.030;2022-11-20T14:37:10;38.30;;;21.23;;
32080;SDS011;18593;51.426;7.030;2022-11-20T14:39:40;36.95;;;21.25;;
32080;SDS011;18593;51.426;7.030;2022-11-20T14:42:16;40.58;;;22.63;;
32080;SDS011;18593;51.426;7.030;2022-11-20T14:44:44;41.40;;;22.08;;
32080;SDS011;18593;51.426;7.030;2022-11-20T14:47:12;38.90;;;21.38;;
32080;SDS011;18593;51.426;7.030;2022-11-20T14:49:40;39.83;;;22.08;;
32080;SDS011;18593;51.426;7.030;2022-11-20T14:52:11;38.85;;;21.30;;